createdAt,value
2019-05-21T00:00:17.585Z,1009.54
2019-05-21T00:01:17.605Z,1009.61
2019-05-21T00:01:47.529Z,1009.60
2019-05-21T00:02:17.629Z,1009.63
2019-05-21T00:02:47.607Z,1009.59
2019-05-21T00:03:47.541Z,1009.65
2019-05-21T00:04:28.110Z,1009.65
2019-05-21T00:04:51.265Z,1009.65
2019-05-21T00:05:17.591Z,1009.63
2019-05-21T00:06:17.595Z,1009.70
2019-05-21T00:06:47.564Z,1009.67
2019-05-21T00:07:17.602Z,1009.70
2019-05-21T00:07:49.616Z,1009.74
2019-05-21T00:08:50.503Z,1009.75
2019-05-21T00:09:17.602Z,1009.71
2019-05-21T00:09:47.537Z,1009.72
2019-05-21T00:10:17.596Z,1009.71
2019-05-21T00:11:17.614Z,1009.67
2019-05-21T00:11:47.536Z,1009.75
2019-05-21T00:12:17.629Z,1009.74
2019-05-21T00:12:47.575Z,1009.66
2019-05-21T00:13:47.536Z,1009.72
2019-05-21T00:14:17.602Z,1009.65
2019-05-21T00:14:47.547Z,1009.67
2019-05-21T00:15:21.263Z,1009.71
2019-05-21T00:16:17.598Z,1009.70
2019-05-21T00:16:47.547Z,1009.69
2019-05-21T00:17:17.616Z,1009.68
2019-05-21T00:17:47.534Z,1009.67
2019-05-21T00:18:47.544Z,1009.70
2019-05-21T00:19:20.519Z,1009.65
2019-05-21T00:19:47.531Z,1009.69
2019-05-21T00:20:17.595Z,1009.62
2019-05-21T00:21:17.614Z,1009.66
2019-05-21T00:21:47.541Z,1009.71
2019-05-21T00:22:17.609Z,1009.67
2019-05-21T00:22:47.533Z,1009.71
2019-05-21T00:23:47.559Z,1009.67
2019-05-21T00:24:17.603Z,1009.66
2019-05-21T00:24:47.573Z,1009.68
2019-05-21T00:25:18.616Z,1009.70
2019-05-21T00:26:17.596Z,1009.70
2019-05-21T00:26:47.533Z,1009.64
2019-05-21T00:27:17.601Z,1009.69
2019-05-21T00:27:47.610Z,1009.65
2019-05-21T00:28:17.605Z,1009.68
2019-05-21T00:29:17.605Z,1009.66
2019-05-21T00:29:50.399Z,1009.68
2019-05-21T00:30:17.603Z,1009.66
2019-05-21T00:30:47.545Z,1009.66
2019-05-21T00:31:47.627Z,1009.65
2019-05-21T00:32:17.610Z,1009.66
2019-05-21T00:32:47.549Z,1009.67
2019-05-21T00:33:17.611Z,1009.76
2019-05-21T00:33:47.607Z,1009.74
2019-05-21T00:34:47.539Z,1009.71
2019-05-21T00:35:17.595Z,1009.74
2019-05-21T00:35:47.562Z,1009.69
2019-05-21T00:36:21.265Z,1009.71
2019-05-21T00:36:47.558Z,1009.74
2019-05-21T00:37:47.549Z,1009.71
2019-05-21T00:38:17.690Z,1009.72
2019-05-21T00:38:47.546Z,1009.75
2019-05-21T00:39:19.765Z,1009.78
2019-05-21T00:40:20.560Z,1009.77
2019-05-21T00:40:47.549Z,1009.79
2019-05-21T00:41:17.599Z,1009.80
2019-05-21T00:41:47.554Z,1009.73
2019-05-21T00:42:47.555Z,1009.78
2019-05-21T00:43:17.609Z,1009.76
2019-05-21T00:43:47.548Z,1009.82
2019-05-21T00:44:17.630Z,1009.84
2019-05-21T00:45:17.612Z,1009.85
2019-05-21T00:45:47.553Z,1009.85
2019-05-21T00:46:17.615Z,1009.83
2019-05-21T00:46:51.343Z,1009.88
2019-05-21T00:47:47.552Z,1009.84
2019-05-21T00:48:17.609Z,1009.89
2019-05-21T00:48:47.545Z,1009.84
2019-05-21T00:49:17.616Z,1009.86
2019-05-21T00:50:17.616Z,1009.87
2019-05-21T00:50:50.597Z,1009.93
2019-05-21T00:51:17.608Z,1009.90
2019-05-21T00:51:47.558Z,1009.87
2019-05-21T00:52:47.656Z,1009.84
2019-05-21T00:53:17.608Z,1009.87
2019-05-21T00:53:47.550Z,1009.90
2019-05-21T00:54:17.605Z,1009.89
2019-05-21T00:55:17.609Z,1009.90
2019-05-21T00:55:50.589Z,1009.90
2019-05-21T00:56:18.694Z,1009.89
2019-05-21T00:56:47.693Z,1009.85
2019-05-21T00:57:22.424Z,1009.89
2019-05-21T00:58:17.605Z,1009.87
2019-05-21T00:58:47.587Z,1009.84
2019-05-21T00:59:17.616Z,1009.84
2019-05-21T01:00:19.638Z,1009.90
2019-05-21T01:00:47.552Z,1009.87
2019-05-21T01:01:20.433Z,1009.90
2019-05-21T01:01:47.554Z,1009.92
2019-05-21T01:02:47.557Z,1009.81
2019-05-21T01:03:17.706Z,1009.88
2019-05-21T01:03:47.552Z,1009.84
2019-05-21T01:04:17.617Z,1009.80
2019-05-21T01:05:00.541Z,1009.90
2019-05-21T01:05:47.555Z,1009.90
2019-05-21T01:06:17.607Z,1009.88
2019-05-21T01:06:47.550Z,1009.90
2019-05-21T01:07:52.349Z,1009.89
2019-05-21T01:08:17.668Z,1009.86
2019-05-21T01:08:47.552Z,1009.94
2019-05-21T01:09:17.636Z,1009.93
2019-05-21T01:10:17.618Z,1009.89
2019-05-21T01:10:49.579Z,1009.89
2019-05-21T01:11:17.637Z,1009.88
2019-05-21T01:11:50.463Z,1009.84
2019-05-21T01:12:47.560Z,1009.81
2019-05-21T01:13:17.613Z,1009.90
2019-05-21T01:13:47.560Z,1009.93
2019-05-21T01:14:17.644Z,1009.95
2019-05-21T01:15:17.616Z,1009.95
2019-05-21T01:15:47.592Z,1009.92
2019-05-21T01:16:17.615Z,1009.93
2019-05-21T01:16:47.570Z,1009.88
2019-05-21T01:17:49.593Z,1009.91
2019-05-21T01:18:21.222Z,1009.94
2019-05-21T01:18:47.556Z,1009.97
2019-05-21T01:19:17.610Z,1009.95
2019-05-21T01:20:17.629Z,1009.92
2019-05-21T01:20:47.557Z,1009.95
2019-05-21T01:21:19.765Z,1009.98
2019-05-21T01:21:47.662Z,1009.99
2019-05-21T01:22:47.550Z,1009.95
2019-05-21T01:23:17.614Z,1009.98
2019-05-21T01:23:47.624Z,1010.00
2019-05-21T01:24:17.609Z,1009.97
2019-05-21T01:25:17.612Z,1010.02
2019-05-21T01:25:47.560Z,1010.00
2019-05-21T01:26:17.613Z,1009.96
2019-05-21T01:26:47.554Z,1010.04
2019-05-21T01:27:48.594Z,1010.07
2019-05-21T01:28:17.746Z,1010.11
2019-05-21T01:28:52.377Z,1010.05
2019-05-21T01:29:17.615Z,1010.05
2019-05-21T01:30:17.718Z,1010.06
2019-05-21T01:30:47.554Z,1010.09
2019-05-21T01:31:17.613Z,1010.00
2019-05-21T01:31:49.626Z,1010.15
2019-05-21T01:32:50.520Z,1010.09
2019-05-21T01:33:17.617Z,1010.05
2019-05-21T01:33:47.560Z,1010.12
2019-05-21T01:34:17.682Z,1010.11
2019-05-21T01:35:19.659Z,1010.20
2019-05-21T01:35:47.566Z,1010.14
2019-05-21T01:36:17.641Z,1010.07
2019-05-21T01:36:47.579Z,1010.14
2019-05-21T01:37:47.561Z,1010.12
2019-05-21T01:38:17.614Z,1010.11
2019-05-21T01:38:47.554Z,1010.18
2019-05-21T01:39:21.256Z,1010.21
2019-05-21T01:40:17.634Z,1010.12
2019-05-21T01:40:47.557Z,1010.15
2019-05-21T01:41:17.623Z,1010.10
2019-05-21T01:41:47.558Z,1010.05
2019-05-21T01:42:47.560Z,1010.14
2019-05-21T01:43:20.500Z,1010.14
2019-05-21T01:43:47.562Z,1010.15
2019-05-21T01:44:17.611Z,1010.09
2019-05-21T01:45:17.628Z,1010.15
2019-05-21T01:45:47.566Z,1010.10
2019-05-21T01:46:17.616Z,1010.06
2019-05-21T01:46:47.640Z,1010.16
2019-05-21T01:47:47.573Z,1010.16
2019-05-21T01:48:17.617Z,1010.13
2019-05-21T01:48:47.639Z,1010.14
2019-05-21T01:49:17.624Z,1010.16
2019-05-21T01:50:17.618Z,1010.15
2019-05-21T01:50:47.566Z,1010.15
2019-05-21T01:51:17.622Z,1010.16
2019-05-21T01:51:47.564Z,1010.17
2019-05-21T01:52:49.622Z,1010.08
2019-05-21T01:53:17.614Z,1010.12
2019-05-21T01:53:50.462Z,1010.12
2019-05-21T01:54:17.621Z,1010.08
2019-05-21T01:55:17.618Z,1010.09
2019-05-21T01:55:47.560Z,1010.10
2019-05-21T01:56:17.623Z,1010.18
2019-05-21T01:56:47.565Z,1010.13
2019-05-21T01:57:47.619Z,1010.15
2019-05-21T01:58:17.621Z,1010.10
2019-05-21T01:58:47.571Z,1010.12
2019-05-21T01:59:17.648Z,1010.16
2019-05-21T02:00:21.373Z,1010.09
2019-05-21T02:00:47.570Z,1010.09
2019-05-21T02:01:17.745Z,1010.09
2019-05-21T02:01:47.560Z,1010.08
2019-05-21T02:02:47.566Z,1010.06
2019-05-21T02:03:19.569Z,1010.09
2019-05-21T02:03:47.575Z,1010.07
2019-05-21T02:04:20.493Z,1010.09
2019-05-21T02:05:32.881Z,1010.13
2019-05-21T02:05:47.571Z,1010.12
2019-05-21T02:06:17.618Z,1010.13
2019-05-21T02:06:49.603Z,1010.01
2019-05-21T02:07:47.567Z,1010.04
2019-05-21T02:08:17.642Z,1010.01
2019-05-21T02:08:47.563Z,1010.01
2019-05-21T02:09:17.621Z,1010.05
2019-05-21T02:09:48.592Z,1009.98
2019-05-21T02:10:52.365Z,1009.99
2019-05-21T02:11:17.627Z,1009.97
2019-05-21T02:11:47.562Z,1009.98
2019-05-21T02:12:22.498Z,1009.98
2019-05-21T02:13:17.636Z,1009.93
2019-05-21T02:13:49.633Z,1009.96
2019-05-21T02:14:17.625Z,1010.00
2019-05-21T02:14:50.494Z,1009.97
2019-05-21T02:15:47.640Z,1009.87
2019-05-21T02:16:17.627Z,1009.94
2019-05-21T02:16:47.576Z,1009.95
2019-05-21T02:17:17.672Z,1009.89
2019-05-21T02:18:17.623Z,1010.02
2019-05-21T02:18:47.610Z,1010.02
2019-05-21T02:19:17.629Z,1010.02
2019-05-21T02:19:47.577Z,1010.07
2019-05-21T02:20:47.565Z,1010.01
2019-05-21T02:21:22.406Z,1010.05
2019-05-21T02:21:47.575Z,1010.01
2019-05-21T02:22:17.750Z,1010.01
2019-05-21T02:23:17.707Z,1010.05
2019-05-21T02:23:47.577Z,1010.05
2019-05-21T02:24:19.635Z,1010.11
2019-05-21T02:24:47.567Z,1010.12
2019-05-21T02:25:47.572Z,1010.09
2019-05-21T02:26:17.689Z,1010.10
2019-05-21T02:26:47.568Z,1010.14
2019-05-21T02:27:17.635Z,1010.10
2019-05-21T02:28:17.633Z,1010.13
2019-05-21T02:28:47.571Z,1010.12
2019-05-21T02:29:17.651Z,1010.12
2019-05-21T02:29:47.569Z,1010.17
2019-05-21T02:30:48.615Z,1010.07
2019-05-21T02:31:17.650Z,1010.10
2019-05-21T02:31:52.356Z,1010.11
2019-05-21T02:32:17.637Z,1010.10
2019-05-21T02:33:17.650Z,1010.23
2019-05-21T02:33:47.588Z,1010.15
2019-05-21T02:34:17.637Z,1010.10
2019-05-21T02:34:49.689Z,1010.04
2019-05-21T02:35:56.186Z,1010.10
2019-05-21T02:36:17.623Z,1010.14
2019-05-21T02:36:47.613Z,1010.13
2019-05-21T02:37:17.634Z,1010.17
2019-05-21T02:38:17.648Z,1010.21
2019-05-21T02:38:47.594Z,1010.17
2019-05-21T02:39:17.631Z,1010.18
2019-05-21T02:39:47.607Z,1010.19
2019-05-21T02:40:47.653Z,1010.14
2019-05-21T02:41:18.843Z,1010.23
2019-05-21T02:41:47.576Z,1010.16
2019-05-21T02:42:21.216Z,1010.21
2019-05-21T02:43:17.626Z,1010.25
2019-05-21T02:43:47.594Z,1010.20
2019-05-21T02:44:17.637Z,1010.25
2019-05-21T02:44:47.612Z,1010.20
2019-05-21T02:45:47.583Z,1010.27
2019-05-21T02:46:21.329Z,1010.22
2019-05-21T02:46:47.581Z,1010.22
2019-05-21T02:47:17.781Z,1010.26
2019-05-21T02:48:17.635Z,1010.29
2019-05-21T02:48:47.575Z,1010.29
2019-05-21T02:49:17.663Z,1010.24
2019-05-21T02:49:47.577Z,1010.25
2019-05-21T02:50:47.578Z,1010.22
2019-05-21T02:51:17.637Z,1010.22
2019-05-21T02:51:48.606Z,1010.20
2019-05-21T02:52:17.644Z,1010.19
2019-05-21T02:52:52.361Z,1010.25
2019-05-21T02:53:47.581Z,1010.22
2019-05-21T02:54:17.640Z,1010.21
2019-05-21T02:54:47.579Z,1010.23
2019-05-21T02:55:48.835Z,1010.25
2019-05-21T02:56:17.631Z,1010.13
2019-05-21T02:56:52.377Z,1010.16
2019-05-21T02:57:17.639Z,1010.18
2019-05-21T02:58:17.634Z,1010.15
2019-05-21T02:58:47.588Z,1010.14
2019-05-21T02:59:21.138Z,1010.16
2019-05-21T02:59:47.984Z,1010.20
2019-05-21T03:00:47.582Z,1010.18
2019-05-21T03:01:19.680Z,1010.09
2019-05-21T03:01:47.586Z,1010.16
2019-05-21T03:02:18.663Z,1010.10
2019-05-21T03:02:47.588Z,1010.18
2019-05-21T03:03:22.438Z,1010.16
2019-05-21T03:03:47.594Z,1010.12
2019-05-21T03:04:17.634Z,1010.16
2019-05-21T03:04:47.611Z,1010.15
2019-05-21T03:05:17.648Z,1010.11
2019-05-21T03:05:47.664Z,1010.19
2019-05-21T03:06:17.648Z,1010.18
2019-05-21T03:06:47.582Z,1010.03
2019-05-21T03:07:24.962Z,1010.18
2019-05-21T03:07:47.623Z,1010.22
2019-05-21T03:08:17.638Z,1010.24
2019-05-21T03:08:47.578Z,1010.22
2019-05-21T03:09:17.647Z,1010.21
2019-05-21T03:09:47.608Z,1010.18
2019-05-21T03:10:17.637Z,1010.22
2019-05-21T03:10:47.582Z,1010.21
2019-05-21T03:11:17.634Z,1010.20
2019-05-21T03:11:47.584Z,1010.20
2019-05-21T03:12:17.643Z,1010.27
2019-05-21T03:13:17.637Z,1010.20
2019-05-21T03:13:52.382Z,1010.28
2019-05-21T03:14:17.644Z,1010.27
2019-05-21T03:14:47.584Z,1010.24
2019-05-21T03:15:17.671Z,1010.23
2019-05-21T03:15:47.645Z,1010.24
2019-05-21T03:16:17.710Z,1010.29
2019-05-21T03:16:48.734Z,1010.25
2019-05-21T03:17:17.640Z,1010.23
2019-05-21T03:17:52.392Z,1010.26
2019-05-21T03:18:47.596Z,1010.27
2019-05-21T03:19:18.665Z,1010.25
2019-05-21T03:19:47.613Z,1010.28
2019-05-21T03:20:47.591Z,1010.31
2019-05-21T03:21:17.656Z,1010.32
2019-05-21T03:21:47.614Z,1010.30
2019-05-21T03:22:17.640Z,1010.38
2019-05-21T03:23:18.678Z,1010.33
2019-05-21T03:23:47.602Z,1010.32
2019-05-21T03:24:22.461Z,1010.32
2019-05-21T03:24:47.587Z,1010.30
2019-05-21T03:25:47.582Z,1010.30
2019-05-21T03:26:17.649Z,1010.32
2019-05-21T03:26:47.581Z,1010.34
2019-05-21T03:27:17.661Z,1010.34
2019-05-21T03:28:21.235Z,1010.34
2019-05-21T03:28:47.589Z,1010.36
2019-05-21T03:29:17.643Z,1010.39
2019-05-21T03:29:47.594Z,1010.37
2019-05-21T03:30:47.719Z,1010.38
2019-05-21T03:31:17.665Z,1010.40
2019-05-21T03:31:47.604Z,1010.42
2019-05-21T03:32:17.645Z,1010.42
2019-05-21T03:33:17.655Z,1010.37
2019-05-21T03:33:48.897Z,1010.42
2019-05-21T03:34:17.687Z,1010.46
2019-05-21T03:34:52.436Z,1010.49
2019-05-21T03:35:47.617Z,1010.44
2019-05-21T03:36:33.050Z,1010.44
2019-05-21T03:36:47.624Z,1010.43
2019-05-21T03:37:17.656Z,1010.41
2019-05-21T03:37:47.588Z,1010.38
2019-05-21T03:38:17.661Z,1010.43
2019-05-21T03:38:51.356Z,1010.41
2019-05-21T03:39:20.724Z,1010.41
2019-05-21T03:39:47.605Z,1010.48
2019-05-21T03:40:17.669Z,1010.46
2019-05-21T03:40:47.599Z,1010.48
2019-05-21T03:41:17.760Z,1010.40
2019-05-21T03:41:47.587Z,1010.48
2019-05-21T03:42:17.662Z,1010.48
2019-05-21T03:42:47.590Z,1010.35
2019-05-21T03:43:17.710Z,1010.43
2019-05-21T03:43:47.580Z,1010.42
2019-05-21T03:44:17.642Z,1010.47
2019-05-21T03:44:59.484Z,1010.49
2019-05-21T03:45:22.485Z,1010.48
2019-05-21T03:46:17.648Z,1010.49
2019-05-21T03:46:47.605Z,1010.47
2019-05-21T03:47:17.647Z,1010.51
2019-05-21T03:47:47.591Z,1010.52
2019-05-21T03:48:18.660Z,1010.49
2019-05-21T03:48:47.595Z,1010.47
2019-05-21T03:49:22.481Z,1010.56
2019-05-21T03:49:47.599Z,1010.53
2019-05-21T03:50:17.651Z,1010.52
2019-05-21T03:50:47.595Z,1010.53
2019-05-21T03:51:17.646Z,1010.53
2019-05-21T03:51:47.760Z,1010.50
2019-05-21T03:52:17.738Z,1010.55
2019-05-21T03:52:47.591Z,1010.56
2019-05-21T03:53:17.649Z,1010.54
2019-05-21T03:53:47.589Z,1010.54
2019-05-21T03:54:17.653Z,1010.56
2019-05-21T03:54:48.658Z,1010.55
2019-05-21T03:55:17.658Z,1010.57
2019-05-21T03:55:52.406Z,1010.61
2019-05-21T03:56:17.657Z,1010.60
2019-05-21T03:56:47.601Z,1010.61
2019-05-21T03:57:17.651Z,1010.62
2019-05-21T03:57:47.681Z,1010.58
2019-05-21T03:58:17.650Z,1010.56
2019-05-21T03:58:48.748Z,1010.61
2019-05-21T03:59:17.664Z,1010.58
2019-05-21T03:59:52.403Z,1010.65
2019-05-21T04:00:17.655Z,1010.63
2019-05-21T04:00:47.599Z,1010.62
2019-05-21T04:01:17.658Z,1010.66
2019-05-21T04:01:47.597Z,1010.68
2019-05-21T04:02:17.662Z,1010.65
2019-05-21T04:02:47.594Z,1010.70
2019-05-21T04:03:17.650Z,1010.69
2019-05-21T04:03:47.601Z,1010.66
2019-05-21T04:04:17.670Z,1010.69
2019-05-21T04:04:47.605Z,1010.66
2019-05-21T04:05:17.651Z,1010.66
2019-05-21T04:05:47.600Z,1010.67
2019-05-21T04:06:22.631Z,1010.72
2019-05-21T04:06:52.895Z,1010.67
2019-05-21T04:07:17.676Z,1010.71
2019-05-21T04:07:47.594Z,1010.67
2019-05-21T04:08:17.649Z,1010.70
2019-05-21T04:08:47.601Z,1010.69
2019-05-21T04:09:18.972Z,1010.72
2019-05-21T04:09:47.605Z,1010.66
2019-05-21T04:10:22.551Z,1010.71
2019-05-21T04:11:17.680Z,1010.67
2019-05-21T04:11:47.596Z,1010.72
2019-05-21T04:12:17.661Z,1010.68
2019-05-21T04:12:47.601Z,1010.70
2019-05-21T04:13:47.591Z,1010.70
2019-05-21T04:14:17.664Z,1010.66
2019-05-21T04:14:47.592Z,1010.73
2019-05-21T04:15:17.657Z,1010.68
2019-05-21T04:15:47.592Z,1010.64
2019-05-21T04:16:17.656Z,1010.71
2019-05-21T04:16:52.377Z,1010.71
2019-05-21T04:17:17.658Z,1010.66
2019-05-21T04:17:47.612Z,1010.70
2019-05-21T04:18:17.659Z,1010.69
2019-05-21T04:19:17.654Z,1010.71
2019-05-21T04:19:47.605Z,1010.69
2019-05-21T04:20:17.657Z,1010.75
2019-05-21T04:20:51.289Z,1010.73
2019-05-21T04:21:47.600Z,1010.79
2019-05-21T04:22:17.669Z,1010.72
2019-05-21T04:22:47.624Z,1010.74
2019-05-21T04:23:17.656Z,1010.77
2019-05-21T04:23:47.601Z,1010.74
2019-05-21T04:24:17.660Z,1010.75
2019-05-21T04:24:47.719Z,1010.75
2019-05-21T04:25:17.663Z,1010.76
2019-05-21T04:25:47.602Z,1010.75
2019-05-21T04:26:17.666Z,1010.68
2019-05-21T04:26:47.609Z,1010.74
2019-05-21T04:27:22.490Z,1010.78
2019-05-21T04:27:47.605Z,1010.78
2019-05-21T04:28:17.662Z,1010.75
2019-05-21T04:28:47.602Z,1010.79
2019-05-21T04:29:17.653Z,1010.82
2019-05-21T04:29:47.605Z,1010.76
2019-05-21T04:30:17.672Z,1010.80
2019-05-21T04:30:47.617Z,1010.80
2019-05-21T04:31:22.487Z,1010.79
2019-05-21T04:31:47.598Z,1010.83
2019-05-21T04:32:17.669Z,1010.77
2019-05-21T04:32:47.603Z,1010.77
2019-05-21T04:33:17.775Z,1010.78
2019-05-21T04:33:47.606Z,1010.79
2019-05-21T04:34:17.659Z,1010.76
2019-05-21T04:34:47.602Z,1010.80
2019-05-21T04:35:17.715Z,1010.77
2019-05-21T04:35:47.614Z,1010.81
2019-05-21T04:36:17.665Z,1010.77
2019-05-21T04:36:48.651Z,1010.80
2019-05-21T04:37:19.698Z,1010.82
2019-05-21T04:37:52.405Z,1010.85
2019-05-21T04:38:17.688Z,1010.82
2019-05-21T04:38:47.609Z,1010.81
2019-05-21T04:39:17.725Z,1010.85
2019-05-21T04:39:47.604Z,1010.78
2019-05-21T04:40:17.703Z,1010.81
2019-05-21T04:40:48.624Z,1010.84
2019-05-21T04:41:17.661Z,1010.84
2019-05-21T04:41:52.424Z,1010.81
2019-05-21T04:42:17.667Z,1010.84
2019-05-21T04:42:47.648Z,1010.85
2019-05-21T04:43:17.661Z,1010.88
2019-05-21T04:43:47.624Z,1010.81
2019-05-21T04:44:17.658Z,1010.90
2019-05-21T04:44:47.601Z,1010.87
2019-05-21T04:45:17.671Z,1010.89
2019-05-21T04:45:47.602Z,1010.83
2019-05-21T04:46:17.661Z,1010.86
2019-05-21T04:46:47.604Z,1010.85
2019-05-21T04:47:17.680Z,1010.92
2019-05-21T04:47:47.657Z,1010.87
2019-05-21T04:48:22.447Z,1010.87
2019-05-21T04:49:17.665Z,1010.91
2019-05-21T04:49:47.648Z,1010.92
2019-05-21T04:50:17.658Z,1010.93
2019-05-21T04:50:47.613Z,1010.93
2019-05-21T04:51:18.685Z,1010.94
2019-05-21T04:51:47.630Z,1010.97
2019-05-21T04:52:22.466Z,1010.96
2019-05-21T04:52:47.615Z,1010.91
2019-05-21T04:53:17.661Z,1010.94
2019-05-21T04:53:47.679Z,1010.93
2019-05-21T04:54:17.946Z,1010.96
2019-05-21T04:54:47.611Z,1010.99
2019-05-21T04:55:17.663Z,1010.98
2019-05-21T04:55:47.648Z,1011.02
2019-05-21T04:56:17.729Z,1010.99
2019-05-21T04:56:47.612Z,1011.00
2019-05-21T04:57:17.666Z,1011.04
2019-05-21T04:57:48.664Z,1011.02
2019-05-21T04:58:17.790Z,1011.00
2019-05-21T04:58:52.413Z,1011.02
2019-05-21T04:59:17.671Z,1010.96
2019-05-21T04:59:47.607Z,1011.03
2019-05-21T05:00:17.672Z,1010.99
2019-05-21T05:00:47.604Z,1010.99
2019-05-21T05:01:17.671Z,1011.01
2019-05-21T05:01:48.649Z,1011.01
2019-05-21T05:02:17.725Z,1011.00
2019-05-21T05:02:52.523Z,1011.04
2019-05-21T05:03:17.665Z,1011.04
2019-05-21T05:03:47.612Z,1011.03
2019-05-21T05:04:22.754Z,1011.01
2019-05-21T05:04:47.625Z,1011.00
2019-05-21T05:05:17.674Z,1011.00
2019-05-21T05:05:47.615Z,1011.04
2019-05-21T05:06:18.710Z,1011.00
2019-05-21T05:06:47.618Z,1011.04
2019-05-21T05:07:27.969Z,1011.05
2019-05-21T05:07:47.623Z,1011.02
2019-05-21T05:08:18.702Z,1011.04
2019-05-21T05:08:47.928Z,1010.99
2019-05-21T05:09:22.463Z,1011.02
2019-05-21T05:09:47.612Z,1011.03
2019-05-21T05:10:17.672Z,1011.09
2019-05-21T05:10:49.669Z,1011.05
2019-05-21T05:11:17.675Z,1011.07
2019-05-21T05:11:47.618Z,1010.91
2019-05-21T05:12:17.666Z,1011.04
2019-05-21T05:12:47.673Z,1011.05
2019-05-21T05:13:21.358Z,1011.08
2019-05-21T05:13:47.609Z,1011.05
2019-05-21T05:14:18.687Z,1011.08
2019-05-21T05:14:47.610Z,1010.97
2019-05-21T05:15:17.673Z,1011.08
2019-05-21T05:15:47.606Z,1011.07
2019-05-21T05:16:17.673Z,1011.06
2019-05-21T05:16:47.683Z,1011.07
2019-05-21T05:17:17.663Z,1011.06
2019-05-21T05:17:47.615Z,1011.13
2019-05-21T05:18:17.667Z,1011.07
2019-05-21T05:18:48.646Z,1011.12
2019-05-21T05:19:17.675Z,1011.09
2019-05-21T05:19:51.252Z,1011.12
2019-05-21T05:20:17.670Z,1011.11
2019-05-21T05:20:47.637Z,1011.13
2019-05-21T05:21:17.677Z,1011.14
2019-05-21T05:21:48.653Z,1011.14
2019-05-21T05:22:17.673Z,1011.10
2019-05-21T05:22:48.768Z,1011.13
2019-05-21T05:23:17.757Z,1011.14
2019-05-21T05:23:52.438Z,1011.14
2019-05-21T05:24:17.681Z,1011.11
2019-05-21T05:24:47.628Z,1011.14
2019-05-21T05:25:17.825Z,1011.14
2019-05-21T05:25:47.617Z,1011.21
2019-05-21T05:26:17.668Z,1011.16
2019-05-21T05:26:47.654Z,1011.16
2019-05-21T05:27:17.793Z,1011.17
2019-05-21T05:27:47.662Z,1011.16
2019-05-21T05:28:17.680Z,1011.15
2019-05-21T05:28:47.615Z,1011.16
2019-05-21T05:29:18.725Z,1011.16
2019-05-21T05:29:47.681Z,1011.20
2019-05-21T05:30:22.479Z,1011.20
2019-05-21T05:30:48.635Z,1011.20
2019-05-21T05:31:17.683Z,1011.19
2019-05-21T05:31:47.614Z,1011.16
2019-05-21T05:32:17.678Z,1011.19
2019-05-21T05:32:47.624Z,1011.19
2019-05-21T05:33:17.677Z,1011.25
2019-05-21T05:33:47.624Z,1011.23
2019-05-21T05:34:21.209Z,1011.23
2019-05-21T05:34:47.617Z,1011.23
2019-05-21T05:35:17.690Z,1011.25
2019-05-21T05:35:47.614Z,1011.18
2019-05-21T05:36:17.689Z,1011.24
2019-05-21T05:36:47.614Z,1011.26
2019-05-21T05:37:17.677Z,1011.22
2019-05-21T05:37:49.721Z,1011.16
2019-05-21T05:38:17.681Z,1011.30
2019-05-21T05:38:47.633Z,1011.23
2019-05-21T05:39:17.687Z,1011.23
2019-05-21T05:39:48.697Z,1011.26
2019-05-21T05:40:17.686Z,1011.26
2019-05-21T05:40:52.422Z,1011.30
2019-05-21T05:41:47.702Z,1011.30
2019-05-21T05:42:17.678Z,1011.27
2019-05-21T05:42:47.620Z,1011.28
2019-05-21T05:43:20.466Z,1011.31
2019-05-21T05:43:47.684Z,1011.28
2019-05-21T05:44:17.678Z,1011.27
2019-05-21T05:44:52.439Z,1011.35
2019-05-21T05:45:18.723Z,1011.33
2019-05-21T05:45:47.673Z,1011.39
2019-05-21T05:46:17.675Z,1011.35
2019-05-21T05:46:47.626Z,1011.34
2019-05-21T05:47:18.713Z,1011.36
2019-05-21T05:47:47.633Z,1011.35
2019-05-21T05:48:17.895Z,1011.31
2019-05-21T05:48:47.612Z,1011.33
2019-05-21T05:49:17.682Z,1011.36
2019-05-21T05:49:48.635Z,1011.35
2019-05-21T05:50:18.798Z,1011.37
2019-05-21T05:50:47.642Z,1011.35
2019-05-21T05:51:22.504Z,1011.36
2019-05-21T05:52:17.786Z,1011.33
2019-05-21T05:52:47.632Z,1011.38
2019-05-21T05:53:17.680Z,1011.36
2019-05-21T05:54:18.726Z,1011.40
2019-05-21T05:54:47.626Z,1011.34
2019-05-21T05:55:22.482Z,1011.33
2019-05-21T05:55:47.626Z,1011.33
2019-05-21T05:56:47.622Z,1011.37
2019-05-21T05:57:17.681Z,1011.36
2019-05-21T05:57:47.631Z,1011.37
2019-05-21T05:58:17.695Z,1011.37
2019-05-21T05:58:47.622Z,1011.36
2019-05-21T05:59:17.678Z,1011.37
2019-05-21T05:59:47.621Z,1011.41
2019-05-21T06:00:17.693Z,1011.37
2019-05-21T06:00:48.672Z,1011.38
2019-05-21T06:01:17.684Z,1011.40
2019-05-21T06:01:52.422Z,1011.41
2019-05-21T06:02:17.683Z,1011.37
2019-05-21T06:02:47.621Z,1011.37
2019-05-21T06:03:47.614Z,1011.42
2019-05-21T06:04:17.677Z,1011.42
2019-05-21T06:04:48.659Z,1011.43
2019-05-21T06:05:17.691Z,1011.40
2019-05-21T06:05:52.835Z,1011.48
2019-05-21T06:06:47.783Z,1011.41
2019-05-21T06:07:17.699Z,1011.41
2019-05-21T06:07:59.582Z,1011.46
2019-05-21T06:08:47.722Z,1011.49
2019-05-21T06:09:17.686Z,1011.49
2019-05-21T06:09:47.635Z,1011.43
2019-05-21T06:10:17.680Z,1011.44
2019-05-21T06:11:18.718Z,1011.46
2019-05-21T06:11:47.630Z,1011.47
2019-05-21T06:12:22.470Z,1011.43
2019-05-21T06:12:47.641Z,1011.43
2019-05-21T06:13:47.629Z,1011.47
2019-05-21T06:14:17.687Z,1011.44
2019-05-21T06:14:47.632Z,1011.45
2019-05-21T06:15:18.717Z,1011.46
2019-05-21T06:16:22.505Z,1011.48
2019-05-21T06:16:47.729Z,1011.45
2019-05-21T06:17:17.677Z,1011.46
2019-05-21T06:17:47.625Z,1011.48
2019-05-21T06:18:47.630Z,1011.48
2019-05-21T06:19:17.681Z,1011.43
2019-05-21T06:19:47.626Z,1011.49
2019-05-21T06:20:17.680Z,1011.50
2019-05-21T06:21:17.738Z,1011.50
2019-05-21T06:21:48.643Z,1011.47
2019-05-21T06:22:17.716Z,1011.51
2019-05-21T06:22:52.422Z,1011.61
2019-05-21T06:23:47.632Z,1011.50
2019-05-21T06:24:17.690Z,1011.54
2019-05-21T06:24:47.635Z,1011.55
2019-05-21T06:25:17.978Z,1011.56
2019-05-21T06:26:17.697Z,1011.52
2019-05-21T06:26:51.397Z,1011.55
2019-05-21T06:27:17.687Z,1011.56
2019-05-21T06:27:47.636Z,1011.60
2019-05-21T06:28:47.630Z,1011.59
2019-05-21T06:29:17.703Z,1011.56
2019-05-21T06:29:47.627Z,1011.60
2019-05-21T06:30:17.689Z,1011.62
2019-05-21T06:31:17.695Z,1011.65
2019-05-21T06:31:47.712Z,1011.63
2019-05-21T06:32:18.730Z,1011.62
2019-05-21T06:32:47.630Z,1011.67
2019-05-21T06:33:22.560Z,1011.68
2019-05-21T06:34:17.690Z,1011.72
2019-05-21T06:34:49.663Z,1011.73
2019-05-21T06:35:17.690Z,1011.68
2019-05-21T06:36:18.712Z,1011.71
2019-05-21T06:36:47.632Z,1011.72
2019-05-21T06:37:22.500Z,1011.72
2019-05-21T06:37:47.637Z,1011.74
2019-05-21T06:38:22.491Z,1011.82
2019-05-21T06:39:17.694Z,1011.78
2019-05-21T06:39:47.634Z,1011.77
2019-05-21T06:40:17.695Z,1011.76
2019-05-21T06:41:17.689Z,1011.76
2019-05-21T06:41:47.640Z,1011.77
2019-05-21T06:42:17.797Z,1011.78
2019-05-21T06:42:48.664Z,1011.78
2019-05-21T06:43:52.467Z,1011.76
2019-05-21T06:44:17.703Z,1011.78
2019-05-21T06:44:47.635Z,1011.80
2019-05-21T06:45:17.688Z,1011.79
2019-05-21T06:46:17.716Z,1011.78
2019-05-21T06:46:47.635Z,1011.83
2019-05-21T06:47:17.692Z,1011.86
2019-05-21T06:47:51.281Z,1011.82
2019-05-21T06:48:47.638Z,1011.85
2019-05-21T06:49:17.685Z,1011.76
2019-05-21T06:49:47.632Z,1011.83
2019-05-21T06:50:17.691Z,1011.84
2019-05-21T06:51:17.691Z,1011.83
2019-05-21T06:51:47.636Z,1011.80
2019-05-21T06:52:17.695Z,1011.82
2019-05-21T06:52:47.640Z,1011.82
2019-05-21T06:53:47.666Z,1011.85
2019-05-21T06:54:22.511Z,1011.87
2019-05-21T06:54:47.636Z,1011.89
2019-05-21T06:55:17.700Z,1011.86
2019-05-21T06:56:17.694Z,1011.88
2019-05-21T06:56:47.738Z,1011.93
2019-05-21T06:57:17.703Z,1011.87
2019-05-21T06:57:47.660Z,1011.92
2019-05-21T06:58:47.740Z,1011.90
2019-05-21T06:59:17.689Z,1011.94
2019-05-21T06:59:47.655Z,1011.94